Hg 306 Tobis — OUPS — position and weather

sailwx.info

Track history (hours):
 
Tides and Currents Weather Stations Pressure Air Temp Water Temp Dewpoint Dewpoint Depression Visibility Wind Speed Wind Dir Waves Ship Positions

Hg 306 Tobis

Last reported at 2015-Mar-02 04:33 UTC. Time now 2015-Mar-02 05:07 UTC.
Position N 55°19' E 015°18'.

Length 40 m; draft 6.5 m.

Type: Fishing. MMSI: 219013001.

Date/timePositionNaut miles runAvg speedWind from/ knotsBaromVisibWave heightAir tempDewpointWater temp
2015-Mar-02 04:33N 55°19' E 015°18'3 3.3
2015-Mar-02 03:33N 55°22' E 015°17'3 3.4
2015-Mar-02 02:33N 55°25' E 015°16'3 3.2
2015-Mar-02 01:33N 55°28' E 015°13'3 3.4
2015-Mar-02 00:33N 55°30' E 015°08'3 3.3
2015-Mar-01 23:33N 55°31' E 015°03'3 2.9
2015-Mar-01 22:33N 55°30' E 015°07'3 3.5
2015-Mar-01 21:33N 55°28' E 015°12'4 3.6
2015-Mar-01 20:33N 55°26' E 015°18'4 3.6
2015-Mar-01 19:33N 55°26' E 015°24'6 2.9
2015-Mar-01 17:24N 55°25' E 015°35'2 2.6
2015-Mar-01 16:34N 55°25' E 015°31'3 3.4
2015-Mar-01 15:34N 55°26' E 015°25'3 3.4
2015-Mar-01 14:33N 55°27' E 015°19'3 3.3
2015-Mar-01 13:34N 55°28' E 015°14'3 3.3
2015-Mar-01 12:33N 55°30' E 015°09'4 3.4
2015-Mar-01 11:24N 55°32' E 015°03'0 0.4
2015-Mar-01 10:34N 55°32' E 015°03'3 3.5
2015-Mar-01 09:33N 55°30' E 015°08'4 3.6
2015-Mar-01 08:33N 55°28' E 015°13'4 3.6
2015-Mar-01 07:33N 55°26' E 015°19'4 3.7
2015-Mar-01 06:33N 55°26' E 015°26'4 1.9
2015-Mar-01 04:23N 55°25' E 015°33'3 3.4
2015-Mar-01 03:33N 55°26' E 015°28'3 3.3
2015-Mar-01 02:33N 55°26' E 015°22'3 3.3
2015-Mar-01 01:33N 55°27' E 015°16'3 3.4
2015-Mar-01 00:33N 55°28' E 015°11'3 3.5
2015-Feb-28 23:33N 55°30' E 015°06'3 2.5
2015-Feb-28 22:33N 55°32' E 015°02'3 3.1
2015-Feb-28 21:34N 55°30' E 015°07'4 3.6
2015-Feb-28 20:33N 55°28' E 015°12'4 3.7
2015-Feb-28 19:34N 55°26' E 015°18'4 3.8
2015-Feb-28 18:33N 55°26' E 015°24'4 3.8
2015-Feb-28 17:33N 55°25' E 015°31'2 1.8
2015-Feb-28 16:33N 55°25' E 015°34'1 1.0
2015-Feb-28 15:25N 55°25' E 015°32'3 2.9
2015-Feb-28 14:33N 55°25' E 015°28'3 3.3
2015-Feb-28 13:33N 55°26' E 015°22'3 3.3
2015-Feb-28 12:33N 55°26' E 015°16'3 3.5
2015-Feb-28 11:33N 55°28' E 015°11'4 3.5
2015-Feb-28 10:30N 55°30' E 015°06'2 0.6
2015-Feb-28 07:33N 55°31' E 015°03'3 3.4
2015-Feb-28 06:33N 55°29' E 015°08'3 3.4
2015-Feb-28 05:33N 55°27' E 015°13'4 3.6
2015-Feb-28 04:23N 55°26' E 015°20'3 3.6
2015-Feb-28 03:33N 55°25' E 015°25'4 1.8
2015-Feb-28 01:09N 55°25' E 015°33'12 3.3
2015-Feb-27 21:33N 55°28' E 015°13'4 3.5
2015-Feb-27 20:33N 55°30' E 015°07'3 3.2
2015-Feb-27 19:33N 55°32' E 015°03'6 6.3
2015-Feb-27 18:34N 55°26' E 015°07'3 3.4
2015-Feb-27 17:33N 55°28' E 015°02'3 3.5
2015-Feb-27 16:33N 55°28' E 014°55'3 3.5
2015-Feb-27 15:34N 55°29' E 014°49'4 3.7
2015-Feb-27 14:33N 55°28' E 014°43'4 3.7
2015-Feb-27 13:33N 55°27' E 014°37'6 6.2
2015-Feb-27 12:33N 55°21' E 014°36'1010.0
2015-Feb-27 11:34N 55°11' E 014°37'6 5.7
2015-Feb-27 10:33N 55°06' E 014°42'4 4.0
2015-Feb-27 09:33N 55°02' E 014°39'10 9.9
2015-Feb-27 08:33N 54°52' E 014°39'10 9.9
2015-Feb-27 07:33N 54°42' E 014°39'10 9.8
2015-Feb-27 06:33N 54°32' E 014°39'1010.0
2015-Feb-27 05:33N 54°22' E 014°38'10 9.7
2015-Feb-27 04:33N 54°13' E 014°32'10 9.7
2015-Feb-27 03:33N 54°05' E 014°24'9 9.4
2015-Feb-27 02:33N 53°56' E 014°16'3 2.7
2015-Feb-27 01:33N 53°54' E 014°16'0 0.0
2015-Feb-27 00:34N 53°54' E 014°16'0 0.0
2015-Feb-26 23:33N 53°54' E 014°16'0 0.0
2015-Feb-26 22:33N 53°54' E 014°16'0 0.0
2015-Feb-26 21:33N 53°54' E 014°16'0 0.0
2015-Feb-26 20:33N 53°54' E 014°16'0 0.0
2015-Feb-26 19:33N 53°54' E 014°16'0 0.0
2015-Feb-26 18:34N 53°54' E 014°16'0 0.0
2015-Feb-26 17:33N 53°54' E 014°16'0 0.0
2015-Feb-26 16:33N 53°54' E 014°16'0 0.0
2015-Feb-26 15:33N 53°54' E 014°16'0 0.0
2015-Feb-26 14:33N 53°54' E 014°16'2 1.9
2015-Feb-26 13:34N 53°56' E 014°17'9 9.0
2015-Feb-26 12:33N 54°04' E 014°22'42 9.9
2015-Feb-26 08:20N 54°41' E 014°54'8 9.8
2015-Feb-26 07:33N 54°48' E 014°60'10 9.6
2015-Feb-26 06:33N 54°56' E 015°09'10 9.8
2015-Feb-26 05:33N 55°05' E 015°17'1010.1
2015-Feb-26 04:34N 55°14' E 015°25'12 8.8
2015-Feb-26 03:11N 55°25' E 015°32'2 2.9
2015-Feb-26 02:30N 55°25' E 015°29'3 3.4
2015-Feb-26 01:33N 55°26' E 015°23'3 3.3
2015-Feb-26 00:34N 55°26' E 015°17'3 3.3
2015-Feb-25 23:33N 55°28' E 015°12'4 3.5
2015-Feb-25 22:24N 55°30' E 015°06'3 3.6
2015-Feb-25 21:33N 55°32' E 015°02'0 0.2
2015-Feb-25 20:22N 55°32' E 015°02'2 2.8
2015-Feb-25 19:33N 55°31' E 015°05'3 3.5
2015-Feb-25 18:34N 55°28' E 015°10'4 3.6
2015-Feb-25 17:33N 55°27' E 015°15'4 3.7
2015-Feb-25 16:33N 55°26' E 015°22'5 3.8
2015-Feb-25 15:18N 55°25' E 015°30'4 4.4
2015-Feb-25 14:24N 55°25' E 015°37'1 1.0
2015-Feb-25 13:17N 55°25' E 015°35'2 2.8
2015-Feb-25 12:29N 55°25' E 015°31'3 3.4
2015-Feb-25 11:33N 55°25' E 015°25'4 3.4
2015-Feb-25 10:29N 55°26' E 015°19'3 3.6
2015-Feb-25 09:33N 55°27' E 015°14'4 3.6
2015-Feb-25 08:31N 55°29' E 015°08'4 3.7
2015-Feb-25 07:33N 55°31' E 015°03'1 0.9
2015-Feb-25 06:34N 55°31' E 015°05'3 3.4
2015-Feb-25 05:33N 55°29' E 015°09'3 3.5
2015-Feb-25 04:33N 55°27' E 015°14'4 3.5
2015-Feb-25 03:33N 55°26' E 015°20'6 1.5
2015-Feb-24 23:34N 55°25' E 015°31'3 3.3
2015-Feb-24 22:33N 55°26' E 015°25'3 3.5
2015-Feb-24 21:33N 55°26' E 015°19'4 3.6
2015-Feb-24 20:33N 55°28' E 015°13'4 3.6
2015-Feb-24 19:33N 55°30' E 015°08'3 3.2
2015-Feb-24 18:34N 55°32' E 015°04'4 3.7
2015-Feb-24 17:33N 55°29' E 015°09'3 3.5
2015-Feb-24 16:33N 55°28' E 015°14'4 3.5
2015-Feb-24 15:33N 55°26' E 015°20'4 3.6
2015-Feb-24 14:33N 55°26' E 015°26'7 3.5
2015-Feb-24 12:31N 55°26' E 015°39'4 2.1
2015-Feb-24 10:33N 55°25' E 015°31'4 3.6
2015-Feb-24 09:33N 55°26' E 015°25'4 3.7
2015-Feb-24 08:33N 55°26' E 015°19'4 3.7
2015-Feb-24 07:33N 55°28' E 015°13'4 3.7
2015-Feb-24 06:33N 55°30' E 015°07'3 2.5
2015-Feb-24 05:33N 55°32' E 015°04'3 3.1
2015-Feb-24 04:33N 55°30' E 015°09'4 3.6
2015-Feb-24 03:33N 55°28' E 015°14'4 3.5
2015-Feb-24 02:33N 55°26' E 015°19'4 3.7
2015-Feb-24 01:33N 55°26' E 015°26'3 0.8
2015-Feb-23 22:33N 55°26' E 015°30'4 3.5
2015-Feb-23 21:33N 55°26' E 015°24'4 3.6
2015-Feb-23 20:33N 55°27' E 015°18'4 3.7
2015-Feb-23 19:33N 55°28' E 015°12'4 3.7
2015-Feb-23 18:33N 55°30' E 015°07'1 1.3
2015-Feb-23 17:33N 55°31' E 015°05'3 3.2
2015-Feb-23 16:33N 55°29' E 015°09'3 3.4
2015-Feb-23 15:33N 55°27' E 015°14'3 3.4
2015-Feb-23 14:33N 55°26' E 015°20'8 2.8
2015-Feb-23 11:33N 55°22' E 015°33'1010.3
2015-Feb-23 10:33N 55°12' E 015°24'1010.3
2015-Feb-23 09:33N 55°03' E 015°17'1010.5
2015-Feb-23 08:33N 54°54' E 015°08'1210.3
2015-Feb-23 07:25N 54°43' E 014°59'3310.3
2015-Feb-23 04:15N 54°15' E 014°33'710.2
2015-Feb-23 03:33N 54°08' E 014°27'1010.2
2015-Feb-23 02:33N 53°60' E 014°18'6 6.3
2015-Feb-23 01:33N 53°54' E 014°16'0 0.0
2015-Feb-23 00:33N 53°54' E 014°16'0 0.0
2015-Feb-22 23:33N 53°54' E 014°16'0 0.0
2015-Feb-22 22:33N 53°54' E 014°16'0 0.0
2015-Feb-22 21:33N 53°54' E 014°16'0 0.0
2015-Feb-22 20:33N 53°54' E 014°16'0 0.0
2015-Feb-22 19:33N 53°54' E 014°16'0 0.0
2015-Feb-22 18:33N 53°54' E 014°16'0 0.0
2015-Feb-22 17:33N 53°54' E 014°16'0 0.0
2015-Feb-22 16:33N 53°54' E 014°16'5 4.7
2015-Feb-22 15:33N 53°58' E 014°16'5 4.7
2015-Feb-22 14:33N 54°02' E 014°20'5210.3
2015-Feb-22 09:33N 54°47' E 015°04'1010.4
2015-Feb-22 08:33N 54°56' E 015°13'10 9.8
2015-Feb-22 07:34N 55°05' E 015°21'10 9.8
2015-Feb-22 06:30N 55°14' E 015°30'12 9.3
2015-Feb-22 05:10N 55°25' E 015°39'5 3.1
2015-Feb-22 03:33N 55°26' E 015°30'3 3.4
2015-Feb-22 02:33N 55°26' E 015°24'4 3.5
2015-Feb-22 01:34N 55°26' E 015°18'4 3.6
2015-Feb-22 00:33N 55°28' E 015°12'4 3.8
2015-Feb-21 23:22N 55°31' E 015°06'1 0.7
2015-Feb-21 22:33N 55°30' E 015°07'2 2.4
2015-Feb-21 21:33N 55°28' E 015°10'3 2.7
2015-Feb-21 20:33N 55°27' E 015°14'3 2.8
2015-Feb-21 19:33N 55°26' E 015°18'4 3.2
2015-Feb-21 18:24N 55°25' E 015°25'3 3.4
2015-Feb-21 17:33N 55°25' E 015°30'4 3.6
2015-Feb-21 16:22N 55°25' E 015°37'1 0.7
2015-Feb-21 15:30N 55°25' E 015°38'3 3.5
2015-Feb-21 14:32N 55°26' E 015°32'3 3.4
2015-Feb-21 13:33N 55°26' E 015°26'4 3.5
2015-Feb-21 12:26N 55°26' E 015°20'3 3.6
2015-Feb-21 11:33N 55°27' E 015°14'4 3.8
2015-Feb-21 10:29N 55°30' E 015°08'3 3.1
2015-Feb-21 09:33N 55°31' E 015°04'3 2.6
2015-Feb-21 08:33N 55°30' E 015°08'3 3.2
2015-Feb-21 07:33N 55°28' E 015°12'3 3.3
2015-Feb-21 06:30N 55°26' E 015°18'3 3.4
2015-Feb-21 05:33N 55°26' E 015°23'4 3.6
2015-Feb-21 04:26N 55°25' E 015°30'4 3.7
2015-Feb-21 03:23N 55°25' E 015°37'3 3.0
2015-Feb-21 02:18N 55°25' E 015°31'3 3.5
2015-Feb-21 01:33N 55°25' E 015°27'3 3.5
2015-Feb-21 00:33N 55°26' E 015°21'4 3.6
2015-Feb-20 23:33N 55°27' E 015°15'4 3.7
2015-Feb-20 22:33N 55°29' E 015°09'4 4.0
2015-Feb-20 21:33N 55°31' E 015°04'2 2.2
2015-Feb-20 20:33N 55°30' E 015°07'3 3.3
2015-Feb-20 19:33N 55°28' E 015°12'3 3.3
2015-Feb-20 18:33N 55°26' E 015°17'3 3.3
2015-Feb-20 17:33N 55°26' E 015°22'4 3.4
2015-Feb-20 16:25N 55°25' E 015°29'4 3.5
2015-Feb-20 15:15N 55°25' E 015°36'1 0.8
2015-Feb-20 14:31N 55°25' E 015°35'4 3.6
2015-Feb-20 13:33N 55°25' E 015°29'4 3.6
2015-Feb-20 12:33N 55°26' E 015°23'4 3.7
2015-Feb-20 11:33N 55°27' E 015°16'4 3.7
2015-Feb-20 10:33N 55°29' E 015°11'4 3.7
2015-Feb-20 09:33N 55°31' E 015°05'2 1.7
2015-Feb-20 08:33N 55°30' E 015°08'3 2.9
2015-Feb-20 07:33N 55°28' E 015°12'3 3.4
2015-Feb-20 06:33N 55°26' E 015°17'3 3.3
2015-Feb-20 05:33N 55°26' E 015°22'  
Track history (hours):
 
Tides and Currents Weather Stations Pressure Air Temp Water Temp Dewpoint Dewpoint Depression Visibility Wind Speed Wind Dir Waves Ship Positions

Hg 306 Tobis

Last reported at 2015-Mar-02 04:33 UTC. Time now 2015-Mar-02 05:07 UTC.
Position N 55°19' E 015°18'.

Length 40 m; draft 6.5 m.

Type: Fishing. MMSI: 219013001.

Date/timePositionNaut miles runAvg speedWind from/ knotsBaromVisibWave heightAir tempDewpointWater temp
2015-Mar-02 04:33N 55°19' E 015°18'3 3.3
2015-Mar-02 03:33N 55°22' E 015°17'3 3.4
2015-Mar-02 02:33N 55°25' E 015°16'3 3.2
2015-Mar-02 01:33N 55°28' E 015°13'3 3.4
2015-Mar-02 00:33N 55°30' E 015°08'3 3.3
2015-Mar-01 23:33N 55°31' E 015°03'3 2.9
2015-Mar-01 22:33N 55°30' E 015°07'3 3.5
2015-Mar-01 21:33N 55°28' E 015°12'4 3.6
2015-Mar-01 20:33N 55°26' E 015°18'4 3.6
2015-Mar-01 19:33N 55°26' E 015°24'6 2.9
2015-Mar-01 17:24N 55°25' E 015°35'2 2.6
2015-Mar-01 16:34N 55°25' E 015°31'3 3.4
2015-Mar-01 15:34N 55°26' E 015°25'3 3.4
2015-Mar-01 14:33N 55°27' E 015°19'3 3.3
2015-Mar-01 13:34N 55°28' E 015°14'3 3.3
2015-Mar-01 12:33N 55°30' E 015°09'4 3.4
2015-Mar-01 11:24N 55°32' E 015°03'0 0.4
2015-Mar-01 10:34N 55°32' E 015°03'3 3.5
2015-Mar-01 09:33N 55°30' E 015°08'4 3.6
2015-Mar-01 08:33N 55°28' E 015°13'4 3.6
2015-Mar-01 07:33N 55°26' E 015°19'4 3.7
2015-Mar-01 06:33N 55°26' E 015°26'4 1.9
2015-Mar-01 04:23N 55°25' E 015°33'3 3.4
2015-Mar-01 03:33N 55°26' E 015°28'3 3.3
2015-Mar-01 02:33N 55°26' E 015°22'3 3.3
2015-Mar-01 01:33N 55°27' E 015°16'3 3.4
2015-Mar-01 00:33N 55°28' E 015°11'3 3.5
2015-Feb-28 23:33N 55°30' E 015°06'3 2.5
2015-Feb-28 22:33N 55°32' E 015°02'3 3.1
2015-Feb-28 21:34N 55°30' E 015°07'4 3.6
2015-Feb-28 20:33N 55°28' E 015°12'4 3.7
2015-Feb-28 19:34N 55°26' E 015°18'4 3.8
2015-Feb-28 18:33N 55°26' E 015°24'4 3.8
2015-Feb-28 17:33N 55°25' E 015°31'2 1.8
2015-Feb-28 16:33N 55°25' E 015°34'1 1.0
2015-Feb-28 15:25N 55°25' E 015°32'3 2.9
2015-Feb-28 14:33N 55°25' E 015°28'3 3.3
2015-Feb-28 13:33N 55°26' E 015°22'3 3.3
2015-Feb-28 12:33N 55°26' E 015°16'3 3.5
2015-Feb-28 11:33N 55°28' E 015°11'4 3.5
2015-Feb-28 10:30N 55°30' E 015°06'2 0.6
2015-Feb-28 07:33N 55°31' E 015°03'3 3.4
2015-Feb-28 06:33N 55°29' E 015°08'3 3.4
2015-Feb-28 05:33N 55°27' E 015°13'4 3.6
2015-Feb-28 04:23N 55°26' E 015°20'3 3.6
2015-Feb-28 03:33N 55°25' E 015°25'4 1.8
2015-Feb-28 01:09N 55°25' E 015°33'12 3.3
2015-Feb-27 21:33N 55°28' E 015°13'4 3.5
2015-Feb-27 20:33N 55°30' E 015°07'3 3.2
2015-Feb-27 19:33N 55°32' E 015°03'6 6.3
2015-Feb-27 18:34N 55°26' E 015°07'3 3.4
2015-Feb-27 17:33N 55°28' E 015°02'3 3.5
2015-Feb-27 16:33N 55°28' E 014°55'3 3.5
2015-Feb-27 15:34N 55°29' E 014°49'4 3.7
2015-Feb-27 14:33N 55°28' E 014°43'4 3.7
2015-Feb-27 13:33N 55°27' E 014°37'6 6.2
2015-Feb-27 12:33N 55°21' E 014°36'1010.0
2015-Feb-27 11:34N 55°11' E 014°37'6 5.7
2015-Feb-27 10:33N 55°06' E 014°42'4 4.0
2015-Feb-27 09:33N 55°02' E 014°39'10 9.9
2015-Feb-27 08:33N 54°52' E 014°39'10 9.9
2015-Feb-27 07:33N 54°42' E 014°39'10 9.8
2015-Feb-27 06:33N 54°32' E 014°39'1010.0
2015-Feb-27 05:33N 54°22' E 014°38'10 9.7
2015-Feb-27 04:33N 54°13' E 014°32'10 9.7
2015-Feb-27 03:33N 54°05' E 014°24'9 9.4
2015-Feb-27 02:33N 53°56' E 014°16'3 2.7
2015-Feb-27 01:33N 53°54' E 014°16'0 0.0
2015-Feb-27 00:34N 53°54' E 014°16'0 0.0
2015-Feb-26 23:33N 53°54' E 014°16'0 0.0
2015-Feb-26 22:33N 53°54' E 014°16'0 0.0
2015-Feb-26 21:33N 53°54' E 014°16'0 0.0
2015-Feb-26 20:33N 53°54' E 014°16'0 0.0
2015-Feb-26 19:33N 53°54' E 014°16'0 0.0
2015-Feb-26 18:34N 53°54' E 014°16'0 0.0
2015-Feb-26 17:33N 53°54' E 014°16'0 0.0
2015-Feb-26 16:33N 53°54' E 014°16'0 0.0
2015-Feb-26 15:33N 53°54' E 014°16'0 0.0
2015-Feb-26 14:33N 53°54' E 014°16'2 1.9
2015-Feb-26 13:34N 53°56' E 014°17'9 9.0
2015-Feb-26 12:33N 54°04' E 014°22'42 9.9
2015-Feb-26 08:20N 54°41' E 014°54'8 9.8
2015-Feb-26 07:33N 54°48' E 014°60'10 9.6
2015-Feb-26 06:33N 54°56' E 015°09'10 9.8
2015-Feb-26 05:33N 55°05' E 015°17'1010.1
2015-Feb-26 04:34N 55°14' E 015°25'12 8.8
2015-Feb-26 03:11N 55°25' E 015°32'2 2.9
2015-Feb-26 02:30N 55°25' E 015°29'3 3.4
2015-Feb-26 01:33N 55°26' E 015°23'3 3.3
2015-Feb-26 00:34N 55°26' E 015°17'3 3.3
2015-Feb-25 23:33N 55°28' E 015°12'4 3.5
2015-Feb-25 22:24N 55°30' E 015°06'3 3.6
2015-Feb-25 21:33N 55°32' E 015°02'0 0.2
2015-Feb-25 20:22N 55°32' E 015°02'2 2.8
2015-Feb-25 19:33N 55°31' E 015°05'3 3.5
2015-Feb-25 18:34N 55°28' E 015°10'4 3.6
2015-Feb-25 17:33N 55°27' E 015°15'4 3.7
2015-Feb-25 16:33N 55°26' E 015°22'5 3.8
2015-Feb-25 15:18N 55°25' E 015°30'4 4.4
2015-Feb-25 14:24N 55°25' E 015°37'1 1.0
2015-Feb-25 13:17N 55°25' E 015°35'2 2.8
2015-Feb-25 12:29N 55°25' E 015°31'3 3.4
2015-Feb-25 11:33N 55°25' E 015°25'4 3.4
2015-Feb-25 10:29N 55°26' E 015°19'3 3.6
2015-Feb-25 09:33N 55°27' E 015°14'4 3.6
2015-Feb-25 08:31N 55°29' E 015°08'4 3.7
2015-Feb-25 07:33N 55°31' E 015°03'1 0.9
2015-Feb-25 06:34N 55°31' E 015°05'3 3.4
2015-Feb-25 05:33N 55°29' E 015°09'3 3.5
2015-Feb-25 04:33N 55°27' E 015°14'4 3.5
2015-Feb-25 03:33N 55°26' E 015°20'6 1.5
2015-Feb-24 23:34N 55°25' E 015°31'3 3.3
2015-Feb-24 22:33N 55°26' E 015°25'3 3.5
2015-Feb-24 21:33N 55°26' E 015°19'4 3.6
2015-Feb-24 20:33N 55°28' E 015°13'4 3.6
2015-Feb-24 19:33N 55°30' E 015°08'3 3.2
2015-Feb-24 18:34N 55°32' E 015°04'4 3.7
2015-Feb-24 17:33N 55°29' E 015°09'3 3.5
2015-Feb-24 16:33N 55°28' E 015°14'4 3.5
2015-Feb-24 15:33N 55°26' E 015°20'4 3.6
2015-Feb-24 14:33N 55°26' E 015°26'7 3.5
2015-Feb-24 12:31N 55°26' E 015°39'4 2.1
2015-Feb-24 10:33N 55°25' E 015°31'4 3.6
2015-Feb-24 09:33N 55°26' E 015°25'4 3.7
2015-Feb-24 08:33N 55°26' E 015°19'4 3.7
2015-Feb-24 07:33N 55°28' E 015°13'4 3.7
2015-Feb-24 06:33N 55°30' E 015°07'3 2.5
2015-Feb-24 05:33N 55°32' E 015°04'3 3.1
2015-Feb-24 04:33N 55°30' E 015°09'4 3.6
2015-Feb-24 03:33N 55°28' E 015°14'4 3.5
2015-Feb-24 02:33N 55°26' E 015°19'4 3.7
2015-Feb-24 01:33N 55°26' E 015°26'3 0.8
2015-Feb-23 22:33N 55°26' E 015°30'4 3.5
2015-Feb-23 21:33N 55°26' E 015°24'4 3.6
2015-Feb-23 20:33N 55°27' E 015°18'4 3.7
2015-Feb-23 19:33N 55°28' E 015°12'4 3.7
2015-Feb-23 18:33N 55°30' E 015°07'1 1.3
2015-Feb-23 17:33N 55°31' E 015°05'3 3.2
2015-Feb-23 16:33N 55°29' E 015°09'3 3.4
2015-Feb-23 15:33N 55°27' E 015°14'3 3.4
2015-Feb-23 14:33N 55°26' E 015°20'8 2.8
2015-Feb-23 11:33N 55°22' E 015°33'1010.3
2015-Feb-23 10:33N 55°12' E 015°24'1010.3
2015-Feb-23 09:33N 55°03' E 015°17'1010.5
2015-Feb-23 08:33N 54°54' E 015°08'1210.3
2015-Feb-23 07:25N 54°43' E 014°59'3310.3
2015-Feb-23 04:15N 54°15' E 014°33'710.2
2015-Feb-23 03:33N 54°08' E 014°27'1010.2
2015-Feb-23 02:33N 53°60' E 014°18'6 6.3
2015-Feb-23 01:33N 53°54' E 014°16'0 0.0
2015-Feb-23 00:33N 53°54' E 014°16'0 0.0
2015-Feb-22 23:33N 53°54' E 014°16'0 0.0
2015-Feb-22 22:33N 53°54' E 014°16'0 0.0
2015-Feb-22 21:33N 53°54' E 014°16'0 0.0
2015-Feb-22 20:33N 53°54' E 014°16'0 0.0
2015-Feb-22 19:33N 53°54' E 014°16'0 0.0
2015-Feb-22 18:33N 53°54' E 014°16'0 0.0
2015-Feb-22 17:33N 53°54' E 014°16'0 0.0
2015-Feb-22 16:33N 53°54' E 014°16'5 4.7
2015-Feb-22 15:33N 53°58' E 014°16'5 4.7
2015-Feb-22 14:33N 54°02' E 014°20'5210.3
2015-Feb-22 09:33N 54°47' E 015°04'1010.4
2015-Feb-22 08:33N 54°56' E 015°13'10 9.8
2015-Feb-22 07:34N 55°05' E 015°21'10 9.8
2015-Feb-22 06:30N 55°14' E 015°30'12 9.3
2015-Feb-22 05:10N 55°25' E 015°39'5 3.1
2015-Feb-22 03:33N 55°26' E 015°30'3 3.4
2015-Feb-22 02:33N 55°26' E 015°24'4 3.5
2015-Feb-22 01:34N 55°26' E 015°18'4 3.6
2015-Feb-22 00:33N 55°28' E 015°12'4 3.8
2015-Feb-21 23:22N 55°31' E 015°06'1 0.7
2015-Feb-21 22:33N 55°30' E 015°07'2 2.4
2015-Feb-21 21:33N 55°28' E 015°10'3 2.7
2015-Feb-21 20:33N 55°27' E 015°14'3 2.8
2015-Feb-21 19:33N 55°26' E 015°18'4 3.2
2015-Feb-21 18:24N 55°25' E 015°25'3 3.4
2015-Feb-21 17:33N 55°25' E 015°30'4 3.6
2015-Feb-21 16:22N 55°25' E 015°37'1 0.7
2015-Feb-21 15:30N 55°25' E 015°38'3 3.5
2015-Feb-21 14:32N 55°26' E 015°32'3 3.4
2015-Feb-21 13:33N 55°26' E 015°26'4 3.5
2015-Feb-21 12:26N 55°26' E 015°20'3 3.6
2015-Feb-21 11:33N 55°27' E 015°14'4 3.8
2015-Feb-21 10:29N 55°30' E 015°08'3 3.1
2015-Feb-21 09:33N 55°31' E 015°04'3 2.6
2015-Feb-21 08:33N 55°30' E 015°08'3 3.2
2015-Feb-21 07:33N 55°28' E 015°12'3 3.3
2015-Feb-21 06:30N 55°26' E 015°18'3 3.4
2015-Feb-21 05:33N 55°26' E 015°23'4 3.6
2015-Feb-21 04:26N 55°25' E 015°30'4 3.7
2015-Feb-21 03:23N 55°25' E 015°37'3 3.0
2015-Feb-21 02:18N 55°25' E 015°31'3 3.5
2015-Feb-21 01:33N 55°25' E 015°27'3 3.5
2015-Feb-21 00:33N 55°26' E 015°21'4 3.6
2015-Feb-20 23:33N 55°27' E 015°15'4 3.7
2015-Feb-20 22:33N 55°29' E 015°09'4 4.0
2015-Feb-20 21:33N 55°31' E 015°04'2 2.2
2015-Feb-20 20:33N 55°30' E 015°07'3 3.3
2015-Feb-20 19:33N 55°28' E 015°12'3 3.3
2015-Feb-20 18:33N 55°26' E 015°17'3 3.3
2015-Feb-20 17:33N 55°26' E 015°22'4 3.4
2015-Feb-20 16:25N 55°25' E 015°29'4 3.5
2015-Feb-20 15:15N 55°25' E 015°36'1 0.8
2015-Feb-20 14:31N 55°25' E 015°35'4 3.6
2015-Feb-20 13:33N 55°25' E 015°29'4 3.6
2015-Feb-20 12:33N 55°26' E 015°23'4 3.7
2015-Feb-20 11:33N 55°27' E 015°16'4 3.7
2015-Feb-20 10:33N 55°29' E 015°11'4 3.7
2015-Feb-20 09:33N 55°31' E 015°05'2 1.7
2015-Feb-20 08:33N 55°30' E 015°08'3 2.9
2015-Feb-20 07:33N 55°28' E 015°12'3 3.4
2015-Feb-20 06:33N 55°26' E 015°17'3 3.3
2015-Feb-20 05:33N 55°26' E 015°22'  

Dump ship's entire track history